Etusivu
METAR-TAF:

METAR-TAF

Lentoasemat :

Biarritz, Ranska

Leveyspiiri: 43-28N, Pituuspiiri: 001-32W, korkeus merenpinnasta: 75 m

Tämänhetkinen sää

Tämä raportti tehtiin 22 minuuttia sitten, kello 10.00 UTC
Tuuli 4 kn idästä
Lämpötila 19°C
Kosteus 73%
Ilmanpaine 1023 hPa
Näkyvyys 10 km tai enemmän
ei pilviä alle 1500 m:ssä eikä cumulonimbus-pilviä

METAR: LFBZ 071000Z AUTO 09004KT CAVOK 19/14 Q1023

Aika: 12:22 (10:22 UTC)


TAF: puuttuu

Säähavainnot ja -ennusteet yli 4000 lentoasemalta (METAR- ja TAF-raportit).

Käytössä olevat sääasemat on merkitty karttaan keltaisilla ja punaisilla pisteillä.

Aseta hiiri pisteen päälle nähdäksesi sääaseman nimen.

Klikkaa sitten nähdäksesi säähavainnot ja -ennusteet.

Kartan vaihtaminen: klikkaa mustalla rastilla varustettuja vihreitä pisteitä, niin voit zoomata sisään; viivalla varustettua vihreää pistettä, niin voit zoomata ulos tai vihreitä nuolia, niin pääset viereisille kartoille.


METAR-TAF: